createdAt,value
2023-02-19T00:01:08.794Z,7.00
2023-02-19T00:03:36.245Z,7.00
2023-02-19T00:06:04.131Z,7.00
2023-02-19T00:08:32.177Z,6.90
2023-02-19T00:11:03.522Z,6.90
2023-02-19T00:13:30.935Z,6.90
2023-02-19T00:16:05.020Z,6.90
2023-02-19T00:18:32.247Z,6.90
2023-02-19T00:20:59.413Z,6.80
2023-02-19T00:23:27.944Z,6.80
2023-02-19T00:25:55.422Z,6.80
2023-02-19T00:28:23.021Z,6.80
2023-02-19T00:30:50.319Z,6.90
2023-02-19T00:33:18.881Z,6.80
2023-02-19T00:35:46.064Z,6.90
2023-02-19T00:38:13.272Z,6.80
2023-02-19T00:40:40.466Z,6.80
2023-02-19T00:43:07.680Z,6.80
2023-02-19T00:45:35.663Z,6.80
2023-02-19T00:48:02.955Z,6.80
2023-02-19T00:50:31.472Z,6.80
2023-02-19T00:52:58.654Z,6.80
2023-02-19T00:55:25.831Z,6.80
2023-02-19T00:57:53.027Z,6.80
2023-02-19T01:00:20.836Z,6.70
2023-02-19T01:02:48.012Z,6.70
2023-02-19T01:05:15.289Z,6.70
2023-02-19T01:07:43.858Z,6.70
2023-02-19T01:10:11.068Z,6.80
2023-02-19T01:12:38.226Z,6.80
2023-02-19T01:15:05.868Z,6.80
2023-02-19T01:17:35.627Z,6.80
2023-02-19T01:20:03.030Z,6.80
2023-02-19T01:22:30.258Z,6.80
2023-02-19T01:24:58.897Z,6.80
2023-02-19T01:27:26.055Z,6.80
2023-02-19T01:29:53.646Z,6.90
2023-02-19T01:32:20.878Z,6.90
2023-02-19T01:34:48.073Z,6.90
2023-02-19T01:37:15.319Z,6.90
2023-02-19T01:39:42.558Z,6.90
2023-02-19T01:42:15.213Z,6.90
2023-02-19T01:45:18.662Z,6.80
2023-02-19T01:47:46.545Z,6.80
2023-02-19T01:50:13.797Z,6.70
2023-02-19T01:52:41.399Z,6.70
2023-02-19T01:55:12.561Z,6.70
2023-02-19T01:57:44.708Z,6.70
2023-02-19T02:00:15.266Z,6.80
2023-02-19T02:02:46.396Z,6.80
2023-02-19T02:05:19.547Z,6.70
2023-02-19T02:08:05.446Z,6.70
2023-02-19T02:10:33.564Z,6.80
2023-02-19T02:13:02.779Z,6.70
2023-02-19T02:15:39.972Z,6.70
2023-02-19T02:18:18.823Z,6.70
2023-02-19T02:21:03.392Z,6.70
2023-02-19T02:23:44.279Z,6.70
2023-02-19T02:26:38.177Z,6.60
2023-02-19T02:29:37.399Z,6.60
2023-02-19T02:32:10.298Z,6.50
2023-02-19T02:34:45.616Z,6.50
2023-02-19T02:37:14.472Z,6.40
2023-02-19T02:39:42.683Z,6.40
2023-02-19T02:42:28.302Z,6.40
2023-02-19T02:45:37.220Z,6.50
2023-02-19T02:48:30.091Z,6.50
2023-02-19T02:51:02.551Z,6.50
2023-02-19T02:53:56.888Z,6.50
2023-02-19T02:56:25.919Z,6.50
2023-02-19T02:58:54.844Z,6.50
2023-02-19T03:01:44.443Z,6.50
2023-02-19T03:04:21.791Z,6.50
2023-02-19T03:06:50.598Z,6.50
2023-02-19T03:09:21.933Z,6.40
2023-02-19T03:12:10.882Z,6.40
2023-02-19T03:15:02.365Z,6.30
2023-02-19T03:17:55.633Z,6.30
2023-02-19T03:20:25.769Z,6.30
2023-02-19T03:22:55.871Z,6.40
2023-02-19T03:25:45.421Z,6.30
2023-02-19T03:28:18.238Z,6.30
2023-02-19T03:30:50.280Z,6.10
2023-02-19T03:33:20.055Z,6.10
2023-02-19T03:35:53.529Z,6.10
2023-02-19T03:38:28.806Z,6.10
2023-02-19T03:41:03.146Z,6.10
2023-02-19T03:43:38.178Z,6.10
2023-02-19T03:46:11.504Z,6.00
2023-02-19T03:48:46.432Z,5.80
2023-02-19T03:51:27.612Z,5.70
2023-02-19T03:54:08.839Z,5.60
2023-02-19T03:56:42.836Z,5.50
2023-02-19T03:59:14.287Z,5.50
2023-02-19T04:01:45.256Z,5.50
2023-02-19T04:04:18.902Z,5.50
2023-02-19T04:06:53.848Z,5.50
2023-02-19T04:09:22.845Z,5.50
2023-02-19T04:11:58.889Z,5.60
2023-02-19T04:14:30.710Z,5.60
2023-02-19T04:17:01.596Z,5.60
2023-02-19T04:19:32.896Z,5.50
2023-02-19T04:22:02.239Z,5.40
2023-02-19T04:24:33.455Z,5.30
2023-02-19T04:27:01.115Z,5.30
2023-02-19T04:29:28.303Z,5.30
2023-02-19T04:31:55.589Z,5.30
2023-02-19T04:34:22.815Z,5.30
2023-02-19T04:36:49.995Z,5.30
2023-02-19T04:39:18.534Z,5.30
2023-02-19T04:41:45.728Z,5.10
2023-02-19T04:44:12.909Z,5.10
2023-02-19T04:46:42.729Z,5.00
2023-02-19T04:49:10.450Z,5.10
2023-02-19T04:51:38.501Z,5.10
2023-02-19T04:54:05.809Z,5.10
2023-02-19T04:56:34.324Z,5.00
2023-02-19T04:59:01.552Z,5.00
2023-02-19T05:01:29.131Z,4.90
2023-02-19T05:03:56.373Z,4.90
2023-02-19T05:06:23.642Z,4.90
2023-02-19T05:08:50.833Z,5.00
2023-02-19T05:11:18.111Z,4.90
2023-02-19T05:13:46.652Z,4.80
2023-02-19T05:16:16.066Z,4.80
2023-02-19T05:18:45.207Z,4.80
2023-02-19T05:21:13.203Z,4.80
2023-02-19T05:23:41.040Z,4.90
2023-02-19T05:26:09.996Z,4.90
2023-02-19T05:28:37.200Z,4.90
2023-02-19T05:31:08.079Z,4.80
2023-02-19T05:33:35.557Z,4.80
2023-02-19T05:36:07.570Z,4.80
2023-02-19T05:38:35.076Z,4.90
2023-02-19T05:41:10.993Z,4.80
2023-02-19T05:43:38.550Z,4.80
2023-02-19T05:46:07.866Z,4.90
2023-02-19T05:48:35.317Z,4.80
2023-02-19T05:51:03.290Z,4.80
2023-02-19T05:53:30.586Z,4.80
2023-02-19T05:55:58.243Z,4.80
2023-02-19T05:58:25.850Z,4.80
2023-02-19T06:00:53.342Z,4.80
2023-02-19T06:03:22.161Z,4.80
2023-02-19T06:05:49.428Z,4.70
2023-02-19T06:08:16.633Z,4.70
2023-02-19T06:10:43.859Z,4.70
2023-02-19T06:13:11.368Z,4.70
2023-02-19T06:15:38.585Z,4.80
2023-02-19T06:18:05.856Z,4.70
2023-02-19T06:20:34.360Z,4.60
2023-02-19T06:23:01.595Z,4.70
2023-02-19T06:25:28.795Z,4.70
2023-02-19T06:27:56.037Z,4.70
2023-02-19T06:30:23.333Z,4.70
2023-02-19T06:32:52.240Z,4.70
2023-02-19T06:35:19.851Z,4.70
2023-02-19T06:37:49.122Z,4.70
2023-02-19T06:40:16.974Z,4.70
2023-02-19T06:42:44.204Z,4.70
2023-02-19T06:45:11.416Z,4.70
2023-02-19T06:47:38.744Z,4.70
2023-02-19T06:50:06.391Z,4.60
2023-02-19T06:52:33.621Z,4.60
2023-02-19T06:55:02.166Z,4.60
2023-02-19T06:57:29.370Z,4.60
2023-02-19T06:59:56.670Z,4.60
2023-02-19T07:02:23.898Z,4.50
2023-02-19T07:04:51.114Z,4.60
2023-02-19T07:07:18.290Z,4.60
2023-02-19T07:09:45.460Z,4.60
2023-02-19T07:12:13.967Z,4.60
2023-02-19T07:14:41.157Z,4.60
2023-02-19T07:17:08.378Z,4.50
2023-02-19T07:19:35.553Z,4.50
2023-02-19T07:22:02.747Z,4.50
2023-02-19T07:24:29.947Z,4.50
2023-02-19T07:26:57.130Z,4.50
2023-02-19T07:29:25.638Z,4.50
2023-02-19T07:31:52.847Z,4.50
2023-02-19T07:34:20.780Z,4.50
2023-02-19T07:36:47.959Z,4.60
2023-02-19T07:39:15.857Z,4.60
2023-02-19T07:41:43.032Z,4.60
2023-02-19T07:44:13.455Z,4.60
2023-02-19T07:46:42.043Z,4.60
2023-02-19T07:49:09.409Z,4.60
2023-02-19T07:51:39.754Z,4.70
2023-02-19T07:54:08.039Z,4.80
2023-02-19T07:56:35.220Z,4.60
2023-02-19T07:59:02.428Z,4.60
2023-02-19T08:01:48.535Z,4.60
2023-02-19T08:04:17.066Z,4.60
2023-02-19T08:06:44.288Z,4.80
2023-02-19T08:09:11.625Z,5.00
2023-02-19T08:11:57.697Z,5.00
2023-02-19T08:14:25.712Z,5.10
2023-02-19T08:16:53.597Z,5.20
2023-02-19T08:19:22.477Z,5.20
2023-02-19T08:21:50.582Z,5.30
2023-02-19T08:24:17.788Z,5.40
2023-02-19T08:26:44.995Z,5.60
2023-02-19T08:29:12.176Z,5.70
2023-02-19T08:31:39.559Z,5.90
2023-02-19T08:34:06.953Z,6.00
2023-02-19T08:36:35.511Z,6.20
2023-02-19T08:39:02.773Z,6.20
2023-02-19T08:41:29.983Z,6.20
2023-02-19T08:43:57.220Z,6.40
2023-02-19T08:46:24.510Z,6.70
2023-02-19T08:48:52.166Z,6.90
2023-02-19T08:51:19.422Z,7.10
2023-02-19T08:53:48.067Z,7.40
2023-02-19T08:56:17.297Z,7.60
2023-02-19T08:58:45.181Z,7.70
2023-02-19T09:01:14.641Z,7.90
2023-02-19T09:03:42.596Z,7.80
2023-02-19T09:06:14.798Z,7.90
2023-02-19T09:08:42.005Z,7.90
2023-02-19T09:11:10.882Z,8.10
2023-02-19T09:13:38.213Z,8.30
2023-02-19T09:16:05.934Z,8.50
2023-02-19T09:18:33.241Z,8.50
2023-02-19T09:21:01.757Z,8.60
2023-02-19T09:23:29.392Z,8.60
2023-02-19T09:26:00.277Z,8.60
2023-02-19T09:28:28.849Z,8.60
2023-02-19T09:30:56.111Z,8.50
2023-02-19T09:33:23.380Z,8.60
2023-02-19T09:35:50.558Z,8.50
2023-02-19T09:38:17.739Z,8.50
2023-02-19T09:40:45.241Z,8.50
2023-02-19T09:43:17.432Z,8.40
2023-02-19T09:45:46.595Z,8.40
2023-02-19T09:48:13.804Z,8.20
2023-02-19T09:50:45.733Z,8.00
2023-02-19T09:53:17.272Z,8.00
2023-02-19T09:55:44.980Z,8.20
2023-02-19T09:58:25.634Z,8.30
2023-02-19T10:00:56.078Z,8.50
2023-02-19T10:03:30.543Z,8.60
2023-02-19T10:05:59.758Z,8.80
2023-02-19T10:08:27.042Z,9.10
2023-02-19T10:10:54.830Z,9.30
2023-02-19T10:13:24.038Z,9.20
2023-02-19T10:15:54.250Z,9.30
2023-02-19T10:18:25.658Z,9.40
2023-02-19T10:20:53.296Z,9.60
2023-02-19T10:23:20.823Z,9.80
2023-02-19T10:25:51.521Z,10.10
2023-02-19T10:28:22.417Z,10.20
2023-02-19T10:30:54.121Z,10.20
2023-02-19T10:33:23.202Z,9.70
2023-02-19T10:35:54.881Z,10.00
2023-02-19T10:38:26.022Z,10.30
2023-02-19T10:41:02.730Z,10.70
2023-02-19T10:43:33.842Z,10.90
2023-02-19T10:46:04.737Z,11.10
2023-02-19T10:48:36.591Z,11.30
2023-02-19T10:51:08.168Z,11.40
2023-02-19T10:53:46.770Z,11.40
2023-02-19T10:56:16.568Z,11.50
2023-02-19T10:58:44.941Z,11.50
2023-02-19T11:01:15.657Z,11.50
2023-02-19T11:03:44.775Z,11.60
2023-02-19T11:06:14.257Z,11.70
2023-02-19T11:08:54.194Z,11.90
2023-02-19T11:11:37.352Z,12.10
2023-02-19T11:14:12.710Z,11.90
2023-02-19T11:16:43.476Z,11.90
2023-02-19T11:19:31.287Z,12.00
2023-02-19T11:21:59.209Z,12.00
2023-02-19T11:24:30.871Z,11.80
2023-02-19T11:26:59.572Z,11.90
2023-02-19T11:29:28.776Z,12.10
2023-02-19T11:31:56.607Z,11.90
2023-02-19T11:34:30.020Z,11.90
2023-02-19T11:37:12.026Z,11.80
2023-02-19T11:39:42.159Z,11.90
2023-02-19T11:42:33.498Z,12.00
2023-02-19T11:45:13.086Z,12.00
2023-02-19T11:48:09.044Z,12.10
2023-02-19T11:50:48.410Z,12.20
2023-02-19T11:53:22.288Z,12.30
2023-02-19T11:55:59.008Z,12.40
2023-02-19T11:58:48.775Z,12.40
2023-02-19T12:01:24.002Z,12.60
2023-02-19T12:04:08.544Z,12.70
2023-02-19T12:06:47.604Z,12.60
2023-02-19T12:09:36.914Z,12.60
2023-02-19T12:12:21.580Z,12.80
2023-02-19T12:15:12.935Z,12.80
2023-02-19T12:18:06.477Z,12.80
2023-02-19T12:20:40.028Z,12.20
2023-02-19T12:23:43.749Z,11.90
2023-02-19T12:26:22.065Z,11.80
2023-02-19T12:29:12.108Z,11.50
2023-02-19T12:32:06.498Z,11.20
2023-02-19T12:34:46.053Z,11.00
2023-02-19T12:37:25.338Z,10.80
2023-02-19T12:40:02.747Z,11.00
2023-02-19T12:42:44.744Z,11.00
2023-02-19T12:45:20.145Z,10.60
2023-02-19T12:48:00.268Z,10.50
2023-02-19T12:50:28.691Z,10.40
2023-02-19T12:53:02.085Z,10.40
2023-02-19T12:55:35.600Z,10.10
2023-02-19T12:58:05.514Z,9.80
2023-02-19T13:00:39.537Z,9.70
2023-02-19T13:03:16.509Z,9.40
2023-02-19T13:05:49.833Z,9.30
2023-02-19T13:08:23.668Z,9.30
2023-02-19T13:10:58.247Z,9.30
2023-02-19T13:13:29.206Z,9.20
2023-02-19T13:16:01.611Z,9.10
2023-02-19T13:18:36.922Z,9.00
2023-02-19T13:21:06.193Z,9.10
2023-02-19T13:23:55.245Z,9.00
2023-02-19T13:26:38.703Z,8.90
2023-02-19T13:29:17.732Z,8.90
2023-02-19T13:32:05.566Z,9.00
2023-02-19T13:34:45.455Z,9.10
2023-02-19T13:37:12.768Z,9.30
2023-02-19T13:39:48.582Z,9.30
2023-02-19T13:42:25.658Z,9.10
2023-02-19T13:44:57.717Z,9.30
2023-02-19T13:47:46.163Z,9.60
2023-02-19T13:50:20.564Z,10.00
2023-02-19T13:52:47.853Z,10.40
2023-02-19T13:55:46.663Z,10.80
2023-02-19T13:58:38.939Z,11.40
2023-02-19T14:01:07.589Z,11.80
2023-02-19T14:03:47.691Z,11.90
2023-02-19T14:06:14.947Z,12.30
2023-02-19T14:08:55.936Z,11.80
2023-02-19T14:12:00.671Z,11.60
2023-02-19T14:14:35.292Z,11.50
2023-02-19T14:17:05.642Z,11.30
2023-02-19T14:19:48.988Z,11.30
2023-02-19T14:22:56.944Z,11.20
2023-02-19T14:25:46.144Z,11.20
2023-02-19T14:28:19.132Z,10.70
2023-02-19T14:30:51.082Z,10.60
2023-02-19T14:33:21.725Z,10.20
2023-02-19T14:35:53.428Z,10.00
2023-02-19T14:38:25.170Z,9.80
2023-02-19T14:40:54.134Z,9.90
2023-02-19T14:43:24.772Z,10.00
2023-02-19T14:45:56.879Z,10.10
2023-02-19T14:48:28.823Z,10.40
2023-02-19T14:51:03.157Z,10.40
2023-02-19T14:53:35.182Z,10.60
2023-02-19T14:56:03.619Z,10.70
2023-02-19T14:58:33.216Z,10.70
2023-02-19T15:01:01.787Z,10.80
2023-02-19T15:03:34.716Z,10.80
2023-02-19T15:06:05.946Z,10.50
2023-02-19T15:08:37.916Z,10.30
2023-02-19T15:11:11.128Z,10.30
2023-02-19T15:13:45.394Z,10.40
2023-02-19T15:16:18.682Z,10.30
2023-02-19T15:18:46.958Z,10.30
2023-02-19T15:21:23.413Z,10.20
2023-02-19T15:23:51.712Z,10.20
2023-02-19T15:26:22.169Z,10.00
2023-02-19T15:28:58.676Z,9.90
2023-02-19T15:31:27.479Z,9.70
2023-02-19T15:33:55.362Z,9.60
2023-02-19T15:36:27.616Z,9.70
2023-02-19T15:38:57.830Z,9.70
2023-02-19T15:41:28.652Z,9.60
2023-02-19T15:44:01.938Z,9.50
2023-02-19T15:46:30.980Z,9.40
2023-02-19T15:49:03.320Z,9.30
2023-02-19T15:51:34.889Z,9.10
2023-02-19T15:54:09.931Z,9.00
2023-02-19T15:56:40.030Z,8.80
2023-02-19T15:59:16.291Z,8.60
2023-02-19T16:01:45.201Z,8.50
2023-02-19T16:04:14.608Z,8.20
2023-02-19T16:06:55.973Z,8.10
2023-02-19T16:09:30.780Z,8.20
2023-02-19T16:11:59.738Z,8.20
2023-02-19T16:14:31.404Z,8.10
2023-02-19T16:17:07.535Z,8.00
2023-02-19T16:19:45.095Z,8.00
2023-02-19T16:22:14.440Z,7.90
2023-02-19T16:24:45.383Z,7.80
2023-02-19T16:27:13.894Z,7.60
2023-02-19T16:29:41.429Z,7.60
2023-02-19T16:32:16.989Z,7.40
2023-02-19T16:34:46.858Z,7.30
2023-02-19T16:37:35.073Z,7.20
2023-02-19T16:40:54.178Z,7.10
2023-02-19T16:43:31.384Z,7.00
2023-02-19T16:45:59.573Z,7.00
2023-02-19T16:48:29.167Z,7.00
2023-02-19T16:50:56.616Z,7.00
2023-02-19T16:53:25.235Z,6.90
2023-02-19T16:55:52.557Z,6.80
2023-02-19T16:58:20.036Z,6.80
2023-02-19T17:00:47.429Z,6.80
2023-02-19T17:03:18.164Z,6.70
2023-02-19T17:05:46.874Z,6.70
2023-02-19T17:08:28.826Z,6.60
2023-02-19T17:10:56.326Z,6.60
2023-02-19T17:13:23.841Z,6.50
2023-02-19T17:15:51.043Z,6.30
2023-02-19T17:18:18.440Z,6.30
2023-02-19T17:20:51.527Z,6.30
2023-02-19T17:23:18.737Z,6.30
2023-02-19T17:25:45.946Z,6.20
2023-02-19T17:28:13.141Z,6.20
2023-02-19T17:30:40.619Z,6.10
2023-02-19T17:33:07.945Z,6.10
2023-02-19T17:35:35.229Z,6.00
2023-02-19T17:38:09.419Z,6.00
2023-02-19T17:40:37.287Z,5.90
2023-02-19T17:43:04.820Z,5.90
2023-02-19T17:45:32.497Z,5.90
2023-02-19T17:48:00.058Z,5.80
2023-02-19T17:50:29.321Z,5.70
2023-02-19T17:52:56.759Z,5.70
2023-02-19T17:55:25.853Z,5.70
2023-02-19T17:57:53.597Z,5.70
2023-02-19T18:00:22.774Z,5.70
2023-02-19T18:02:50.165Z,5.70
2023-02-19T18:05:18.174Z,5.60
2023-02-19T18:07:45.991Z,5.60
2023-02-19T18:10:14.758Z,5.60
2023-02-19T18:12:43.594Z,5.50
2023-02-19T18:15:16.115Z,5.50
2023-02-19T18:17:43.378Z,5.50
2023-02-19T18:20:18.615Z,5.50
2023-02-19T18:22:45.926Z,5.40
2023-02-19T18:25:13.491Z,5.40
2023-02-19T18:27:40.766Z,5.40
2023-02-19T18:30:10.309Z,5.40
2023-02-19T18:32:37.859Z,5.40
2023-02-19T18:35:05.871Z,5.40
2023-02-19T18:37:33.895Z,5.40
2023-02-19T18:40:01.743Z,5.40
2023-02-19T18:42:29.182Z,5.30
2023-02-19T18:44:56.473Z,5.30
2023-02-19T18:47:25.555Z,5.20
2023-02-19T18:49:55.013Z,5.20
2023-02-19T18:52:24.805Z,5.20
2023-02-19T18:54:53.436Z,5.20
2023-02-19T18:57:22.444Z,5.20
2023-02-19T18:59:49.950Z,5.20
2023-02-19T19:02:18.289Z,5.20
2023-02-19T19:04:50.867Z,5.20
2023-02-19T19:07:19.600Z,5.20
2023-02-19T19:09:47.338Z,5.10
2023-02-19T19:12:15.481Z,5.10
2023-02-19T19:14:42.911Z,5.00
2023-02-19T19:17:10.475Z,5.00
2023-02-19T19:19:37.818Z,5.00
2023-02-19T19:22:06.359Z,5.10
2023-02-19T19:24:33.537Z,5.00
2023-02-19T19:27:00.807Z,5.00
2023-02-19T19:29:28.291Z,5.00
2023-02-19T19:31:55.569Z,5.00
2023-02-19T19:34:22.963Z,5.00
2023-02-19T19:36:50.138Z,4.90
2023-02-19T19:39:18.677Z,4.90
2023-02-19T19:41:45.920Z,4.90
2023-02-19T19:44:13.245Z,4.80
2023-02-19T19:46:45.466Z,4.80
2023-02-19T19:49:16.598Z,4.80
2023-02-19T19:51:44.229Z,4.80
2023-02-19T19:54:12.362Z,4.80
2023-02-19T19:56:42.280Z,4.80
2023-02-19T19:59:10.623Z,4.80
2023-02-19T20:01:38.382Z,4.70
2023-02-19T20:04:05.960Z,4.70
2023-02-19T20:06:33.275Z,4.70
2023-02-19T20:09:00.692Z,4.70
2023-02-19T20:11:27.979Z,4.70
2023-02-19T20:13:56.606Z,4.60
2023-02-19T20:16:25.186Z,4.60
2023-02-19T20:18:52.388Z,4.50
2023-02-19T20:21:19.904Z,4.50
2023-02-19T20:23:47.189Z,4.40
2023-02-19T20:26:21.733Z,4.40
2023-02-19T20:28:48.897Z,4.40
2023-02-19T20:31:17.894Z,4.30
2023-02-19T20:33:45.217Z,4.30
2023-02-19T20:36:12.450Z,4.30
2023-02-19T20:38:39.793Z,4.20
2023-02-19T20:41:06.978Z,4.20
2023-02-19T20:43:34.374Z,4.20
2023-02-19T20:46:01.835Z,4.20
2023-02-19T20:48:30.344Z,4.10
2023-02-19T20:50:59.505Z,4.10
2023-02-19T20:53:27.166Z,4.10
2023-02-19T20:55:56.034Z,4.10
2023-02-19T20:58:24.069Z,4.10
2023-02-19T21:00:53.465Z,4.20
2023-02-19T21:03:21.360Z,4.20
2023-02-19T21:05:50.007Z,4.20
2023-02-19T21:08:17.390Z,4.20
2023-02-19T21:10:45.827Z,4.20
2023-02-19T21:13:13.635Z,4.20
2023-02-19T21:15:41.005Z,4.20
2023-02-19T21:18:08.311Z,4.10
2023-02-19T21:20:35.491Z,4.10
2023-02-19T21:23:04.258Z,4.10
2023-02-19T21:25:33.064Z,4.20
2023-02-19T21:28:00.363Z,4.20
2023-02-19T21:30:27.587Z,4.20
2023-02-19T21:32:54.791Z,4.20
2023-02-19T21:35:21.983Z,4.10
2023-02-19T21:37:49.233Z,4.10
2023-02-19T21:40:18.127Z,4.10
2023-02-19T21:42:45.388Z,4.10
2023-02-19T21:45:12.626Z,4.10
2023-02-19T21:47:39.812Z,4.10
2023-02-19T21:50:07.940Z,4.00
2023-02-19T21:52:35.237Z,4.00
2023-02-19T21:55:02.453Z,4.00
2023-02-19T21:57:32.300Z,3.90
2023-02-19T21:59:59.521Z,3.90
2023-02-19T22:02:26.736Z,4.00
2023-02-19T22:04:54.720Z,4.00
2023-02-19T22:07:22.241Z,4.00
2023-02-19T22:09:50.111Z,4.00
2023-02-19T22:12:17.575Z,4.00
2023-02-19T22:14:46.311Z,4.00
2023-02-19T22:17:14.185Z,4.00
2023-02-19T22:19:41.443Z,4.00
2023-02-19T22:22:08.705Z,4.00
2023-02-19T22:24:36.065Z,4.00
2023-02-19T22:27:03.735Z,4.00
2023-02-19T22:29:31.190Z,4.00
2023-02-19T22:31:59.819Z,4.10
2023-02-19T22:34:27.048Z,4.10
2023-02-19T22:36:54.246Z,4.10
2023-02-19T22:39:23.224Z,4.00
2023-02-19T22:41:50.935Z,3.90
2023-02-19T22:44:18.572Z,3.90
2023-02-19T22:46:48.338Z,3.90
2023-02-19T22:49:16.953Z,3.80
2023-02-19T22:51:53.262Z,3.90
2023-02-19T22:54:24.866Z,3.90
2023-02-19T22:56:53.059Z,3.90
2023-02-19T22:59:21.156Z,3.80
2023-02-19T23:01:49.729Z,3.70
2023-02-19T23:04:19.847Z,3.70
2023-02-19T23:06:47.107Z,3.60
2023-02-19T23:09:17.180Z,3.70
2023-02-19T23:11:44.565Z,3.70
2023-02-19T23:14:12.146Z,3.60
2023-02-19T23:16:39.427Z,3.60
2023-02-19T23:19:11.279Z,3.60
2023-02-19T23:21:40.541Z,3.60
2023-02-19T23:24:08.076Z,3.60
2023-02-19T23:26:35.579Z,3.60
2023-02-19T23:29:03.208Z,3.60
2023-02-19T23:31:30.559Z,3.60
2023-02-19T23:33:57.836Z,3.60
2023-02-19T23:36:25.055Z,3.60
2023-02-19T23:38:53.615Z,3.60
2023-02-19T23:41:20.788Z,3.60
2023-02-19T23:43:47.997Z,3.60
2023-02-19T23:46:17.327Z,3.50
2023-02-19T23:48:45.927Z,3.40
2023-02-19T23:51:13.927Z,3.40
2023-02-19T23:53:41.272Z,3.40
2023-02-19T23:56:10.070Z,3.40
2023-02-19T23:58:37.337Z,3.40
